sensor_id;sensor_type;location;lat;lon;timestamp;temperature;humidity
75113;DHT22;63692;47.338;8.520;2022-12-18T06:49:32;-0.30;90.30
75113;DHT22;63692;47.338;8.520;2022-12-18T07:00:35;-0.30;90.20
75113;DHT22;63692;47.338;8.520;2022-12-18T08:33:32;-0.40;90.80
75113;DHT22;63692;47.338;8.520;2022-12-18T08:36:01;-0.40;90.80
75113;DHT22;63692;47.338;8.520;2022-12-18T08:38:27;-0.40;90.60
75113;DHT22;63692;47.338;8.520;2022-12-18T08:41:00;-0.40;91.30
75113;DHT22;63692;47.338;8.520;2022-12-18T08:43:26;-0.40;91.50
75113;DHT22;63692;47.338;8.520;2022-12-18T08:46:10;-0.30;91.40
75113;DHT22;63692;47.338;8.520;2022-12-18T08:48:36;-0.20;90.80
75113;DHT22;63692;47.338;8.520;2022-12-18T08:51:01;-0.20;90.30
75113;DHT22;63692;47.338;8.520;2022-12-18T08:53:27;-0.30;90.00
75113;DHT22;63692;47.338;8.520;2022-12-18T08:55:53;-0.30;90.20
75113;DHT22;63692;47.338;8.520;2022-12-18T08:58:19;-0.40;90.00
75113;DHT22;63692;47.338;8.520;2022-12-18T09:00:44;-0.40;90.20
75113;DHT22;63692;47.338;8.520;2022-12-18T09:03:19;-0.40;90.40
75113;DHT22;63692;47.338;8.520;2022-12-18T09:05:47;-0.40;90.50
75113;DHT22;63692;47.338;8.520;2022-12-18T09:08:13;-0.50;90.30
75113;DHT22;63692;47.338;8.520;2022-12-18T09:10:47;-0.50;90.70
75113;DHT22;63692;47.338;8.520;2022-12-18T09:13:13;-0.50;90.80
75113;DHT22;63692;47.338;8.520;2022-12-18T09:15:50;-0.40;90.60
75113;DHT22;63692;47.338;8.520;2022-12-18T09:18:18;-0.40;90.60
75113;DHT22;63692;47.338;8.520;2022-12-18T09:20:45;-0.40;90.20
75113;DHT22;63692;47.338;8.520;2022-12-18T09:23:11;-0.40;90.00
75113;DHT22;63692;47.338;8.520;2022-12-18T09:25:37;-0.40;90.00
75113;DHT22;63692;47.338;8.520;2022-12-18T09:28:06;-0.40;90.20
75113;DHT22;63692;47.338;8.520;2022-12-18T09:30:37;-0.30;90.60
75113;DHT22;63692;47.338;8.520;2022-12-18T09:33:03;-0.30;90.20
75113;DHT22;63692;47.338;8.520;2022-12-18T09:35:29;-0.30;90.30
75113;DHT22;63692;47.338;8.520;2022-12-18T09:37:54;-0.30;90.30
75113;DHT22;63692;47.338;8.520;2022-12-18T09:40:23;-0.30;90.10
75113;DHT22;63692;47.338;8.520;2022-12-18T09:43:00;-0.30;90.20
75113;DHT22;63692;47.338;8.520;2022-12-18T09:45:31;-0.30;90.10
75113;DHT22;63692;47.338;8.520;2022-12-18T09:48:04;-0.20;90.50
75113;DHT22;63692;47.338;8.520;2022-12-18T09:50:37;-0.10;90.00
75113;DHT22;63692;47.338;8.520;2022-12-18T09:53:10;0.00;90.00
75113;DHT22;63692;47.338;8.520;2022-12-18T09:55:41;0.10;89.80
75113;DHT22;63692;47.338;8.520;2022-12-18T10:00:40;0.00;89.70
75113;DHT22;63692;47.338;8.520;2022-12-18T10:03:14;0.00;89.50
75113;DHT22;63692;47.338;8.520;2022-12-18T10:27:41;0.10;89.80
75113;DHT22;63692;47.338;8.520;2022-12-18T10:30:22;0.10;90.10
75113;DHT22;63692;47.338;8.520;2022-12-18T10:32:48;0.10;90.00
75113;DHT22;63692;47.338;8.520;2022-12-18T10:35:24;0.10;89.80
75113;DHT22;63692;47.338;8.520;2022-12-18T10:38:23;0.10;89.50
75113;DHT22;63692;47.338;8.520;2022-12-18T12:34:49;1.00;86.40
75113;DHT22;63692;47.338;8.520;2022-12-18T12:48:31;1.10;86.40
75113;DHT22;63692;47.338;8.520;2022-12-18T12:51:28;1.00;86.10
75113;DHT22;63692;47.338;8.520;2022-12-18T13:17:13;0.80;87.90
75113;DHT22;63692;47.338;8.520;2022-12-18T13:24:42;1.10;86.50
75113;DHT22;63692;47.338;8.520;2022-12-18T13:45:41;1.20;86.40
75113;DHT22;63692;47.338;8.520;2022-12-18T14:21:32;0.70;88.20
75113;DHT22;63692;47.338;8.520;2022-12-18T14:24:26;0.70;88.90
75113;DHT22;63692;47.338;8.520;2022-12-18T14:26:53;0.70;89.20
75113;DHT22;63692;47.338;8.520;2022-12-18T14:29:29;0.60;89.40
75113;DHT22;63692;47.338;8.520;2022-12-18T14:32:16;0.70;89.60
75113;DHT22;63692;47.338;8.520;2022-12-18T14:34:47;0.70;88.90
75113;DHT22;63692;47.338;8.520;2022-12-18T14:37:15;0.60;89.80
75113;DHT22;63692;47.338;8.520;2022-12-18T14:40:04;0.50;90.00
75113;DHT22;63692;47.338;8.520;2022-12-18T14:42:31;0.50;90.40
75113;DHT22;63692;47.338;8.520;2022-12-18T14:48:01;0.40;90.30
75113;DHT22;63692;47.338;8.520;2022-12-18T15:26:49;0.20;91.60
75113;DHT22;63692;47.338;8.520;2022-12-18T15:29:25;0.20;91.90
75113;DHT22;63692;47.338;8.520;2022-12-18T15:32:24;0.20;91.80
75113;DHT22;63692;47.338;8.520;2022-12-18T15:35:31;0.20;91.80
75113;DHT22;63692;47.338;8.520;2022-12-18T16:01:18;0.20;92.30
75113;DHT22;63692;47.338;8.520;2022-12-18T16:03:43;0.30;92.50
75113;DHT22;63692;47.338;8.520;2022-12-18T16:06:09;0.30;92.20
75113;DHT22;63692;47.338;8.520;2022-12-18T16:08:35;0.40;92.60
75113;DHT22;63692;47.338;8.520;2022-12-18T16:11:01;0.40;92.50
75113;DHT22;63692;47.338;8.520;2022-12-18T16:13:27;0.50;92.00
75113;DHT22;63692;47.338;8.520;2022-12-18T16:15:52;0.50;91.70
75113;DHT22;63692;47.338;8.520;2022-12-18T16:18:18;0.50;91.50
75113;DHT22;63692;47.338;8.520;2022-12-18T16:20:44;0.50;91.50
75113;DHT22;63692;47.338;8.520;2022-12-18T16:23:09;0.50;91.90
75113;DHT22;63692;47.338;8.520;2022-12-18T16:25:35;0.40;92.10
75113;DHT22;63692;47.338;8.520;2022-12-18T16:28:01;0.40;92.20
75113;DHT22;63692;47.338;8.520;2022-12-18T16:30:33;0.50;92.10
75113;DHT22;63692;47.338;8.520;2022-12-18T16:32:59;0.50;92.00
75113;DHT22;63692;47.338;8.520;2022-12-18T16:35:27;0.40;92.30
75113;DHT22;63692;47.338;8.520;2022-12-18T16:37:59;0.30;92.20
75113;DHT22;63692;47.338;8.520;2022-12-18T16:40:25;0.30;92.50
75113;DHT22;63692;47.338;8.520;2022-12-18T16:42:51;0.30;92.70
75113;DHT22;63692;47.338;8.520;2022-12-18T16:45:19;0.30;92.80
75113;DHT22;63692;47.338;8.520;2022-12-18T16:48:05;0.30;92.40
75113;DHT22;63692;47.338;8.520;2022-12-18T16:53:29;0.30;92.70
75113;DHT22;63692;47.338;8.520;2022-12-18T16:55:56;0.20;92.90
75113;DHT22;63692;47.338;8.520;2022-12-18T16:58:21;0.30;93.00
75113;DHT22;63692;47.338;8.520;2022-12-18T17:08:35;0.40;92.80
75113;DHT22;63692;47.338;8.520;2022-12-18T17:14:39;0.40;92.90
75113;DHT22;63692;47.338;8.520;2022-12-18T17:17:06;0.30;93.00
75113;DHT22;63692;47.338;8.520;2022-12-18T17:39:13;0.30;93.20
75113;DHT22;63692;47.338;8.520;2022-12-18T17:42:02;0.30;93.10
75113;DHT22;63692;47.338;8.520;2022-12-18T17:44:28;0.40;93.10
75113;DHT22;63692;47.338;8.520;2022-12-18T17:46:54;0.40;93.10
75113;DHT22;63692;47.338;8.520;2022-12-18T17:49:19;0.30;93.10
75113;DHT22;63692;47.338;8.520;2022-12-18T17:51:45;0.40;93.00
75113;DHT22;63692;47.338;8.520;2022-12-18T17:54:12;0.40;92.90
75113;DHT22;63692;47.338;8.520;2022-12-18T17:56:38;0.40;92.80
75113;DHT22;63692;47.338;8.520;2022-12-18T17:59:25;0.40;92.90
75113;DHT22;63692;47.338;8.520;2022-12-18T18:02:12;0.40;93.00
75113;DHT22;63692;47.338;8.520;2022-12-18T18:04:39;0.40;93.30
75113;DHT22;63692;47.338;8.520;2022-12-18T18:09:41;0.40;93.20
75113;DHT22;63692;47.338;8.520;2022-12-18T18:12:14;0.40;93.10
75113;DHT22;63692;47.338;8.520;2022-12-18T18:14:59;0.40;93.20
75113;DHT22;63692;47.338;8.520;2022-12-18T18:19:58;0.40;93.30
75113;DHT22;63692;47.338;8.520;2022-12-18T18:22:36;0.30;93.30
75113;DHT22;63692;47.338;8.520;2022-12-18T18:25:19;0.40;93.20
75113;DHT22;63692;47.338;8.520;2022-12-18T18:28:03;0.30;93.20
75113;DHT22;63692;47.338;8.520;2022-12-18T18:30:35;0.30;93.00
75113;DHT22;63692;47.338;8.520;2022-12-18T18:33:19;0.30;93.00
75113;DHT22;63692;47.338;8.520;2022-12-18T18:35:51;0.30;93.00
75113;DHT22;63692;47.338;8.520;2022-12-18T18:51:33;0.30;93.40
75113;DHT22;63692;47.338;8.520;2022-12-18T18:54:00;0.30;93.50
75113;DHT22;63692;47.338;8.520;2022-12-18T18:56:27;0.30;93.60
75113;DHT22;63692;47.338;8.520;2022-12-18T18:59:01;0.30;93.50
75113;DHT22;63692;47.338;8.520;2022-12-18T19:02:01;0.30;93.50
75113;DHT22;63692;47.338;8.520;2022-12-18T19:04:56;0.40;93.40
75113;DHT22;63692;47.338;8.520;2022-12-18T19:08:08;0.40;93.40
75113;DHT22;63692;47.338;8.520;2022-12-18T19:13:35;0.40;93.70
75113;DHT22;63692;47.338;8.520;2022-12-18T19:16:13;0.30;93.30
75113;DHT22;63692;47.338;8.520;2022-12-18T19:26:40;0.20;93.20
75113;DHT22;63692;47.338;8.520;2022-12-18T19:29:07;0.20;93.00
75113;DHT22;63692;47.338;8.520;2022-12-18T19:31:34;0.20;93.00
75113;DHT22;63692;47.338;8.520;2022-12-18T19:34:00;0.20;93.00
75113;DHT22;63692;47.338;8.520;2022-12-18T19:36:28;0.20;93.00
75113;DHT22;63692;47.338;8.520;2022-12-18T19:38:56;0.20;93.20
75113;DHT22;63692;47.338;8.520;2022-12-18T19:41:23;0.20;93.30
75113;DHT22;63692;47.338;8.520;2022-12-18T19:43:50;0.20;93.20
75113;DHT22;63692;47.338;8.520;2022-12-18T19:46:19;0.20;93.10
75113;DHT22;63692;47.338;8.520;2022-12-18T19:48:45;0.20;93.20
75113;DHT22;63692;47.338;8.520;2022-12-18T19:51:15;0.20;93.40
75113;DHT22;63692;47.338;8.520;2022-12-18T19:53:40;0.10;93.30
75113;DHT22;63692;47.338;8.520;2022-12-18T19:56:07;0.10;93.30
75113;DHT22;63692;47.338;8.520;2022-12-18T19:58:33;0.20;93.30
75113;DHT22;63692;47.338;8.520;2022-12-18T20:01:00;0.20;93.40
75113;DHT22;63692;47.338;8.520;2022-12-18T20:03:25;0.20;93.40
75113;DHT22;63692;47.338;8.520;2022-12-18T20:05:51;0.20;93.40
75113;DHT22;63692;47.338;8.520;2022-12-18T20:08:17;0.20;93.30
75113;DHT22;63692;47.338;8.520;2022-12-18T20:10:42;0.20;93.40
75113;DHT22;63692;47.338;8.520;2022-12-18T20:13:13;0.20;93.40
75113;DHT22;63692;47.338;8.520;2022-12-18T20:15:39;0.20;93.50
75113;DHT22;63692;47.338;8.520;2022-12-18T20:18:05;0.10;93.60
75113;DHT22;63692;47.338;8.520;2022-12-18T20:20:30;0.10;93.60
75113;DHT22;63692;47.338;8.520;2022-12-18T20:22:56;0.10;93.70
75113;DHT22;63692;47.338;8.520;2022-12-18T20:25:22;0.10;93.70
75113;DHT22;63692;47.338;8.520;2022-12-18T20:27:47;0.20;93.70
75113;DHT22;63692;47.338;8.520;2022-12-18T20:30:14;0.20;93.50
75113;DHT22;63692;47.338;8.520;2022-12-18T20:32:39;0.30;93.50
75113;DHT22;63692;47.338;8.520;2022-12-18T20:35:05;0.30;93.50
75113;DHT22;63692;47.338;8.520;2022-12-18T20:37:31;0.30;93.60
75113;DHT22;63692;47.338;8.520;2022-12-18T20:39:57;0.30;93.20
75113;DHT22;63692;47.338;8.520;2022-12-18T20:42:22;0.30;93.20
75113;DHT22;63692;47.338;8.520;2022-12-18T20:47:15;0.30;93.30
75113;DHT22;63692;47.338;8.520;2022-12-18T20:49:41;0.30;93.30
75113;DHT22;63692;47.338;8.520;2022-12-18T20:52:06;0.30;93.40
75113;DHT22;63692;47.338;8.520;2022-12-18T20:54:33;0.30;93.40
75113;DHT22;63692;47.338;8.520;2022-12-18T20:56:59;0.30;93.40
75113;DHT22;63692;47.338;8.520;2022-12-18T20:59:24;0.40;93.30
75113;DHT22;63692;47.338;8.520;2022-12-18T21:01:51;0.30;93.30
75113;DHT22;63692;47.338;8.520;2022-12-18T21:04:17;0.40;93.30
75113;DHT22;63692;47.338;8.520;2022-12-18T21:06:43;0.40;93.40
75113;DHT22;63692;47.338;8.520;2022-12-18T21:09:09;0.40;93.40
75113;DHT22;63692;47.338;8.520;2022-12-18T21:11:35;0.40;93.50
75113;DHT22;63692;47.338;8.520;2022-12-18T21:14:22;0.40;93.40
75113;DHT22;63692;47.338;8.520;2022-12-18T21:16:49;0.50;93.20
75113;DHT22;63692;47.338;8.520;2022-12-18T21:19:17;0.50;93.10
75113;DHT22;63692;47.338;8.520;2022-12-18T21:21:43;0.50;93.10
75113;DHT22;63692;47.338;8.520;2022-12-18T21:24:10;0.50;93.00
75113;DHT22;63692;47.338;8.520;2022-12-18T21:26:36;0.50;93.00
75113;DHT22;63692;47.338;8.520;2022-12-18T21:29:05;0.60;92.80
75113;DHT22;63692;47.338;8.520;2022-12-18T21:31:34;0.60;92.90
75113;DHT22;63692;47.338;8.520;2022-12-18T21:34:01;0.60;92.50
